createdAt,value
2023-05-10T00:02:16.708Z,70.12
2023-05-10T00:04:44.496Z,70.26
2023-05-10T00:07:12.535Z,70.19
2023-05-10T00:09:41.037Z,70.32
2023-05-10T00:12:08.975Z,70.36
2023-05-10T00:14:37.041Z,70.28
2023-05-10T00:17:06.225Z,70.41
2023-05-10T00:19:34.353Z,70.36
2023-05-10T00:22:02.742Z,70.27
2023-05-10T00:24:30.519Z,70.35
2023-05-10T00:26:58.420Z,70.28
2023-05-10T00:29:26.348Z,70.27
2023-05-10T00:31:54.253Z,70.32
2023-05-10T00:34:23.434Z,70.35
2023-05-10T00:36:51.349Z,70.49
2023-05-10T00:39:19.102Z,70.38
2023-05-10T00:41:46.905Z,70.50
2023-05-10T00:44:14.704Z,70.38
2023-05-10T00:46:43.056Z,70.45
2023-05-10T00:49:10.997Z,70.27
2023-05-10T00:51:40.223Z,70.35
2023-05-10T00:54:08.050Z,70.45
2023-05-10T00:56:36.460Z,70.38
2023-05-10T00:59:04.618Z,70.43
2023-05-10T01:01:33.040Z,70.46
2023-05-10T01:04:01.739Z,70.38
2023-05-10T01:06:29.545Z,70.40
2023-05-10T01:08:58.846Z,70.74
2023-05-10T01:11:26.752Z,70.40
2023-05-10T01:13:58.539Z,70.43
2023-05-10T01:16:28.502Z,70.40
2023-05-10T01:18:56.434Z,70.48
2023-05-10T01:21:35.176Z,70.41
2023-05-10T01:24:17.264Z,70.61
2023-05-10T01:27:13.809Z,70.61
2023-05-10T01:30:16.182Z,70.68
2023-05-10T01:32:55.418Z,70.68
2023-05-10T01:35:29.138Z,70.65
2023-05-10T01:38:04.938Z,70.62
2023-05-10T01:40:38.417Z,70.59
2023-05-10T01:43:10.492Z,70.79
2023-05-10T01:45:45.826Z,70.49
2023-05-10T01:48:16.923Z,70.59
2023-05-10T01:50:48.605Z,70.57
2023-05-10T01:53:20.687Z,70.72
2023-05-10T01:55:51.336Z,70.52
2023-05-10T01:58:23.089Z,70.70
2023-05-10T02:00:53.019Z,70.69
2023-05-10T02:03:25.532Z,70.65
2023-05-10T02:05:56.395Z,70.64
2023-05-10T02:08:25.947Z,70.98
2023-05-10T02:10:56.741Z,70.75
2023-05-10T02:13:26.676Z,70.72
2023-05-10T02:15:56.693Z,70.63
2023-05-10T02:18:27.914Z,70.78
2023-05-10T02:20:57.401Z,70.85
2023-05-10T02:23:26.181Z,71.09
2023-05-10T02:25:56.059Z,70.95
2023-05-10T02:28:25.783Z,71.17
2023-05-10T02:30:54.999Z,70.85
2023-05-10T02:33:24.174Z,70.82
2023-05-10T02:35:54.675Z,71.00
2023-05-10T02:38:24.649Z,70.71
2023-05-10T02:40:53.202Z,70.94
2023-05-10T02:43:23.616Z,70.77
2023-05-10T02:45:51.643Z,70.84
2023-05-10T02:48:19.779Z,70.96
2023-05-10T02:50:52.579Z,70.75
2023-05-10T02:53:26.127Z,70.92
2023-05-10T02:55:57.802Z,70.60
2023-05-10T02:58:26.351Z,70.69
2023-05-10T03:00:54.540Z,70.70
2023-05-10T03:03:22.331Z,70.94
2023-05-10T03:05:50.171Z,70.80
2023-05-10T03:08:18.450Z,70.94
2023-05-10T03:11:01.291Z,70.72
2023-05-10T03:13:36.333Z,71.01
2023-05-10T03:16:10.766Z,71.48
2023-05-10T03:18:44.936Z,71.14
2023-05-10T03:21:16.161Z,71.09
2023-05-10T03:23:49.830Z,71.15
2023-05-10T03:26:24.933Z,71.16
2023-05-10T03:28:54.110Z,71.32
2023-05-10T03:31:22.387Z,70.93
2023-05-10T03:33:50.932Z,71.26
2023-05-10T03:36:18.727Z,71.33
2023-05-10T03:38:47.036Z,71.20
2023-05-10T03:41:14.964Z,71.09
2023-05-10T03:43:44.166Z,70.88
2023-05-10T03:46:12.045Z,71.01
2023-05-10T03:48:39.974Z,71.20
2023-05-10T03:51:07.720Z,70.86
2023-05-10T03:53:35.630Z,71.09
2023-05-10T03:56:03.620Z,71.41
2023-05-10T03:58:31.362Z,71.33
2023-05-10T04:01:01.917Z,71.19
2023-05-10T04:03:29.743Z,71.29
2023-05-10T04:06:02.090Z,71.42
2023-05-10T04:08:30.789Z,71.27
2023-05-10T04:11:07.594Z,71.34
2023-05-10T04:13:36.201Z,71.15
2023-05-10T04:16:05.824Z,71.56
2023-05-10T04:18:33.811Z,71.49
2023-05-10T04:21:01.673Z,71.57
2023-05-10T04:23:29.540Z,71.57
2023-05-10T04:26:01.874Z,71.29
2023-05-10T04:28:29.776Z,71.18
2023-05-10T04:31:03.501Z,71.13
2023-05-10T04:33:33.059Z,71.50
2023-05-10T04:36:00.944Z,71.10
2023-05-10T04:38:28.926Z,71.31
2023-05-10T04:40:56.999Z,71.11
2023-05-10T04:43:24.803Z,71.08
2023-05-10T04:45:52.576Z,71.38
2023-05-10T04:48:20.432Z,71.31
2023-05-10T04:50:49.753Z,71.15
2023-05-10T04:53:17.763Z,70.91
2023-05-10T04:55:45.821Z,71.21
2023-05-10T04:58:13.757Z,70.91
2023-05-10T05:00:41.963Z,70.85
2023-05-10T05:03:09.882Z,70.87
2023-05-10T05:05:37.794Z,70.56
2023-05-10T05:08:07.833Z,70.91
2023-05-10T05:10:35.903Z,70.75
2023-05-10T05:13:03.768Z,70.86
2023-05-10T05:15:32.055Z,70.65
2023-05-10T05:17:59.848Z,70.45
2023-05-10T05:20:27.686Z,70.70
2023-05-10T05:22:55.571Z,70.87
2023-05-10T05:25:24.970Z,70.53
2023-05-10T05:27:52.824Z,70.30
2023-05-10T05:30:20.943Z,70.53
2023-05-10T05:32:49.142Z,70.55
2023-05-10T05:35:17.444Z,70.78
2023-05-10T05:37:45.752Z,70.57
2023-05-10T05:40:15.021Z,70.33
2023-05-10T05:42:44.809Z,70.54
2023-05-10T05:45:14.353Z,70.76
2023-05-10T05:47:42.421Z,70.88
2023-05-10T05:50:11.386Z,70.73
2023-05-10T05:52:39.243Z,70.94
2023-05-10T05:55:07.466Z,70.98
2023-05-10T05:57:35.266Z,70.63
2023-05-10T06:00:05.122Z,70.74
2023-05-10T06:02:33.096Z,70.63
2023-05-10T06:05:00.966Z,70.40
2023-05-10T06:07:28.874Z,70.42
2023-05-10T06:09:56.648Z,70.49
2023-05-10T06:12:24.980Z,70.36
2023-05-10T06:14:52.722Z,70.75
2023-05-10T06:17:22.692Z,70.25
2023-05-10T06:19:50.954Z,70.66
2023-05-10T06:22:18.766Z,70.21
2023-05-10T06:24:46.930Z,70.50
2023-05-10T06:27:14.781Z,70.40
2023-05-10T06:29:42.603Z,70.34
2023-05-10T06:32:10.432Z,70.40
2023-05-10T06:34:39.589Z,70.55
2023-05-10T06:37:08.038Z,70.61
2023-05-10T06:39:36.005Z,70.55
2023-05-10T06:42:03.815Z,70.81
2023-05-10T06:44:31.630Z,70.57
2023-05-10T06:46:59.420Z,70.39
2023-05-10T06:49:27.249Z,70.46
2023-05-10T06:51:57.484Z,70.52
2023-05-10T06:54:25.280Z,70.66
2023-05-10T06:56:53.081Z,70.70
2023-05-10T06:59:22.545Z,70.43
2023-05-10T07:01:50.475Z,71.10
2023-05-10T07:04:18.615Z,70.65
2023-05-10T07:06:47.306Z,70.71
2023-05-10T07:09:16.754Z,70.62
2023-05-10T07:11:44.481Z,70.70
2023-05-10T07:14:12.718Z,70.82
2023-05-10T07:16:40.652Z,70.71
2023-05-10T07:19:08.765Z,70.83
2023-05-10T07:21:36.957Z,70.82
2023-05-10T07:24:05.315Z,71.99
2023-05-10T07:26:34.574Z,72.48
2023-05-10T07:29:02.338Z,72.52
2023-05-10T07:31:30.207Z,72.27
2023-05-10T07:33:57.973Z,71.83
2023-05-10T07:36:26.222Z,71.82
2023-05-10T07:38:53.940Z,71.55
2023-05-10T07:41:22.154Z,71.22
2023-05-10T07:43:51.398Z,71.11
2023-05-10T07:46:20.463Z,71.27
2023-05-10T07:48:48.608Z,70.92
2023-05-10T07:51:16.490Z,70.84
2023-05-10T07:53:44.353Z,70.83
2023-05-10T07:56:28.217Z,70.99
2023-05-10T07:58:58.213Z,70.84
2023-05-10T08:01:26.365Z,70.62
2023-05-10T08:03:54.641Z,70.60
2023-05-10T08:06:22.799Z,70.54
2023-05-10T08:08:51.755Z,70.12
2023-05-10T08:11:19.823Z,69.59
2023-05-10T08:13:47.618Z,68.71
2023-05-10T08:16:16.975Z,68.04
2023-05-10T08:18:47.997Z,67.46
2023-05-10T08:21:16.544Z,66.96
2023-05-10T08:23:45.295Z,66.89
2023-05-10T08:26:13.620Z,66.95
2023-05-10T08:28:41.361Z,68.21
2023-05-10T08:31:09.243Z,68.28
2023-05-10T08:33:38.499Z,68.40
2023-05-10T08:36:06.610Z,68.55
2023-05-10T08:38:34.411Z,68.57
2023-05-10T08:41:04.401Z,68.75
2023-05-10T08:43:33.376Z,68.70
2023-05-10T08:46:03.915Z,69.00
2023-05-10T08:48:32.288Z,68.84
2023-05-10T08:51:03.038Z,68.75
2023-05-10T08:53:33.033Z,68.96
2023-05-10T08:56:01.269Z,68.91
2023-05-10T08:58:29.066Z,68.95
2023-05-10T09:00:57.206Z,69.17
2023-05-10T09:03:25.018Z,69.10
2023-05-10T09:05:52.837Z,69.20
2023-05-10T09:08:22.729Z,69.15
2023-05-10T09:10:50.811Z,69.19
2023-05-10T09:13:20.712Z,69.10
2023-05-10T09:15:49.395Z,69.48
2023-05-10T09:18:17.342Z,69.43
2023-05-10T09:20:45.321Z,69.27
2023-05-10T09:23:13.137Z,69.48
2023-05-10T09:25:43.671Z,69.38
2023-05-10T09:28:12.005Z,69.58
2023-05-10T09:30:40.288Z,69.43
2023-05-10T09:33:08.852Z,69.45
2023-05-10T09:35:37.163Z,69.43
2023-05-10T09:38:06.432Z,69.66
2023-05-10T09:40:34.430Z,69.71
2023-05-10T09:43:04.921Z,69.46
2023-05-10T09:45:36.177Z,69.58
2023-05-10T09:48:06.037Z,69.65
2023-05-10T09:50:35.108Z,69.71
2023-05-10T09:53:04.574Z,69.74
2023-05-10T09:55:41.820Z,69.65
2023-05-10T09:58:11.956Z,69.73
2023-05-10T10:00:41.130Z,69.77
2023-05-10T10:03:15.081Z,69.44
2023-05-10T10:05:43.555Z,69.71
2023-05-10T10:08:11.754Z,70.12
2023-05-10T10:10:41.506Z,70.31
2023-05-10T10:13:10.836Z,69.95
2023-05-10T10:15:40.120Z,69.57
2023-05-10T10:18:08.641Z,69.69
2023-05-10T10:20:39.368Z,69.80
2023-05-10T10:23:07.207Z,69.63
2023-05-10T10:25:35.348Z,69.18
2023-05-10T10:28:19.206Z,69.02
2023-05-10T10:30:51.021Z,68.57
2023-05-10T10:33:54.008Z,68.46
2023-05-10T10:36:23.818Z,68.54
2023-05-10T10:39:00.717Z,68.68
2023-05-10T10:41:34.344Z,68.69
2023-05-10T10:44:28.924Z,69.09
2023-05-10T10:47:06.516Z,69.04
2023-05-10T10:49:35.697Z,68.93
2023-05-10T10:52:27.961Z,68.91
2023-05-10T10:55:01.358Z,69.24
2023-05-10T10:57:31.310Z,69.11
2023-05-10T11:00:22.889Z,69.38
2023-05-10T11:02:53.285Z,69.21
2023-05-10T11:05:35.519Z,69.38
2023-05-10T11:08:10.911Z,69.15
2023-05-10T11:10:39.000Z,69.22
2023-05-10T11:13:08.641Z,69.36
2023-05-10T11:15:39.915Z,69.28
2023-05-10T11:18:21.461Z,69.27
2023-05-10T11:20:53.025Z,69.52
2023-05-10T11:23:22.149Z,69.20
2023-05-10T11:25:51.904Z,69.33
2023-05-10T11:28:21.057Z,69.57
2023-05-10T11:30:50.573Z,69.21
2023-05-10T11:33:20.532Z,69.24
2023-05-10T11:35:48.726Z,69.10
2023-05-10T11:38:16.649Z,69.27
2023-05-10T11:40:45.272Z,69.20
2023-05-10T11:43:13.479Z,69.34
2023-05-10T11:45:44.569Z,69.37
2023-05-10T11:48:13.823Z,69.16
2023-05-10T11:50:41.734Z,69.43
2023-05-10T11:53:09.528Z,69.35
2023-05-10T11:55:37.462Z,69.25
2023-05-10T11:58:05.201Z,68.90
2023-05-10T12:00:33.788Z,68.94
2023-05-10T12:03:03.434Z,69.19
2023-05-10T12:05:35.406Z,68.87
2023-05-10T12:08:16.535Z,69.13
2023-05-10T12:10:44.520Z,69.03
2023-05-10T12:13:16.301Z,68.81
2023-05-10T12:15:45.499Z,68.92
2023-05-10T12:18:13.647Z,69.05
2023-05-10T12:20:43.488Z,69.00
2023-05-10T12:23:12.090Z,69.02
2023-05-10T12:25:40.770Z,69.19
2023-05-10T12:28:10.631Z,69.25
2023-05-10T12:30:39.340Z,69.35
2023-05-10T12:33:10.966Z,69.49
2023-05-10T12:35:50.414Z,69.38
2023-05-10T12:38:30.671Z,68.86
2023-05-10T12:40:59.759Z,68.99
2023-05-10T12:43:27.961Z,69.04
2023-05-10T12:45:56.049Z,67.98
2023-05-10T12:48:24.094Z,67.40
2023-05-10T12:50:53.368Z,67.60
2023-05-10T12:53:21.207Z,67.45
2023-05-10T12:55:49.105Z,66.84
2023-05-10T12:58:27.848Z,66.94
2023-05-10T13:01:03.551Z,67.19
2023-05-10T13:03:31.633Z,67.24
2023-05-10T13:06:00.935Z,67.34
2023-05-10T13:08:30.713Z,66.82
2023-05-10T13:10:58.502Z,67.32
2023-05-10T13:13:26.330Z,67.37
2023-05-10T13:15:54.194Z,67.58
2023-05-10T13:18:22.125Z,67.78
2023-05-10T13:20:50.638Z,68.15
2023-05-10T13:23:19.838Z,68.21
2023-05-10T13:25:47.672Z,68.19
2023-05-10T13:28:15.381Z,67.97
2023-05-10T13:30:43.188Z,68.03
2023-05-10T13:33:11.150Z,68.40
2023-05-10T13:35:39.124Z,68.72
2023-05-10T13:38:09.102Z,69.01
2023-05-10T13:40:38.361Z,69.46
2023-05-10T13:43:06.138Z,70.05
2023-05-10T13:45:34.173Z,70.47
2023-05-10T13:48:02.044Z,70.46
2023-05-10T13:50:29.899Z,70.25
2023-05-10T13:52:57.680Z,70.66
2023-05-10T13:55:25.477Z,71.03
2023-05-10T13:57:54.668Z,70.63
2023-05-10T14:00:22.474Z,70.74
2023-05-10T14:02:50.637Z,71.00
2023-05-10T14:05:19.922Z,70.96
2023-05-10T14:07:50.021Z,70.70
2023-05-10T14:10:17.971Z,70.71
2023-05-10T14:12:45.792Z,70.78
2023-05-10T14:15:15.190Z,71.10
2023-05-10T14:17:43.146Z,71.13
2023-05-10T14:20:12.098Z,70.83
2023-05-10T14:22:39.852Z,70.75
2023-05-10T14:25:08.115Z,70.57
2023-05-10T14:27:35.876Z,70.41
2023-05-10T14:30:03.677Z,70.47
2023-05-10T14:32:33.158Z,71.18
2023-05-10T14:35:01.551Z,70.94
2023-05-10T14:37:29.380Z,70.88
2023-05-10T14:39:57.247Z,71.07
2023-05-10T14:42:25.048Z,71.19
2023-05-10T14:44:53.006Z,71.45
2023-05-10T14:47:20.770Z,71.48
2023-05-10T14:49:49.983Z,71.48
2023-05-10T14:52:18.336Z,71.80
2023-05-10T14:54:46.139Z,71.69
2023-05-10T14:57:13.864Z,71.34
2023-05-10T14:59:42.057Z,71.77
2023-05-10T15:02:11.416Z,71.93
2023-05-10T15:04:40.053Z,71.94
2023-05-10T15:07:09.630Z,71.83
2023-05-10T15:09:37.777Z,71.68
2023-05-10T15:12:05.673Z,71.79
2023-05-10T15:14:34.064Z,71.92
2023-05-10T15:17:01.937Z,71.79
2023-05-10T15:19:30.264Z,71.85
2023-05-10T15:21:58.070Z,72.11
2023-05-10T15:24:27.517Z,71.97
2023-05-10T15:26:55.409Z,71.89
2023-05-10T15:29:23.230Z,71.96
2023-05-10T15:31:52.563Z,72.28
2023-05-10T15:34:21.158Z,72.07
2023-05-10T15:36:49.111Z,71.97
2023-05-10T15:39:16.903Z,72.15
2023-05-10T15:41:46.131Z,72.10
2023-05-10T15:44:13.885Z,72.09
2023-05-10T15:46:41.861Z,72.08
2023-05-10T15:49:09.737Z,72.25
2023-05-10T15:51:37.570Z,71.83
2023-05-10T15:54:08.214Z,71.83
2023-05-10T15:56:36.868Z,71.95
2023-05-10T15:59:08.669Z,71.81
2023-05-10T16:01:36.489Z,71.82
2023-05-10T16:04:04.745Z,71.87
2023-05-10T16:06:32.895Z,71.98
2023-05-10T16:09:00.832Z,71.85
2023-05-10T16:11:28.843Z,71.90
2023-05-10T16:13:57.166Z,71.61
2023-05-10T16:16:26.401Z,71.68
2023-05-10T16:18:54.447Z,71.74
2023-05-10T16:21:22.333Z,71.34
2023-05-10T16:23:50.325Z,71.61
2023-05-10T16:26:18.318Z,71.34
2023-05-10T16:28:46.101Z,71.60
2023-05-10T16:31:14.061Z,71.53
2023-05-10T16:33:44.004Z,71.51
2023-05-10T16:36:12.026Z,71.49
2023-05-10T16:38:39.889Z,71.56
2023-05-10T16:41:08.018Z,71.50
2023-05-10T16:43:36.785Z,71.57
2023-05-10T16:46:10.582Z,71.28
2023-05-10T16:48:38.463Z,71.54
2023-05-10T16:51:07.821Z,71.47
2023-05-10T16:53:36.252Z,71.43
2023-05-10T16:56:04.113Z,71.38
2023-05-10T16:58:31.904Z,71.28
2023-05-10T17:01:00.189Z,71.37
2023-05-10T17:03:28.302Z,71.53
2023-05-10T17:05:56.181Z,71.60
2023-05-10T17:08:25.365Z,71.58
2023-05-10T17:10:53.118Z,71.47
2023-05-10T17:13:20.943Z,71.63
2023-05-10T17:15:48.825Z,71.54
2023-05-10T17:18:17.740Z,71.72
2023-05-10T17:20:46.137Z,71.38
2023-05-10T17:23:14.023Z,71.54
2023-05-10T17:25:43.230Z,71.47
2023-05-10T17:28:11.025Z,71.78
2023-05-10T17:30:38.778Z,71.71
2023-05-10T17:33:06.797Z,71.61
2023-05-10T17:35:35.137Z,71.68
2023-05-10T17:38:02.953Z,71.90
2023-05-10T17:40:30.985Z,71.90
2023-05-10T17:43:00.192Z,71.62
2023-05-10T17:45:28.070Z,71.67
2023-05-10T17:47:57.194Z,71.66
2023-05-10T17:50:25.019Z,71.45
2023-05-10T17:52:53.010Z,71.48
2023-05-10T17:55:20.855Z,71.49
2023-05-10T17:57:50.582Z,71.49
2023-05-10T18:00:21.450Z,71.61
2023-05-10T18:02:49.428Z,71.54
2023-05-10T18:05:17.912Z,71.43
2023-05-10T18:07:46.174Z,71.33
2023-05-10T18:10:13.992Z,71.68
2023-05-10T18:12:41.812Z,71.42
2023-05-10T18:15:10.397Z,71.23
2023-05-10T18:17:39.705Z,71.36
2023-05-10T18:20:08.871Z,71.11
2023-05-10T18:22:37.117Z,71.13
2023-05-10T18:25:05.842Z,71.06
2023-05-10T18:27:34.388Z,71.44
2023-05-10T18:30:02.364Z,71.59
2023-05-10T18:32:30.437Z,71.54
2023-05-10T18:34:59.867Z,71.38
2023-05-10T18:37:27.993Z,71.44
2023-05-10T18:39:55.848Z,71.39
2023-05-10T18:42:23.663Z,71.31
2023-05-10T18:44:51.576Z,71.25
2023-05-10T18:47:19.352Z,71.22
2023-05-10T18:49:47.176Z,71.45
2023-05-10T18:52:17.002Z,71.51
2023-05-10T18:54:44.797Z,71.27
2023-05-10T18:57:13.810Z,71.48
2023-05-10T18:59:42.590Z,71.38
2023-05-10T19:02:10.472Z,71.25
2023-05-10T19:04:38.397Z,71.41
2023-05-10T19:07:06.234Z,71.54
2023-05-10T19:09:35.713Z,71.41
2023-05-10T19:12:03.541Z,71.46
2023-05-10T19:14:31.334Z,71.53
2023-05-10T19:17:01.324Z,71.45
2023-05-10T19:19:29.248Z,71.54
2023-05-10T19:21:57.151Z,71.52
2023-05-10T19:24:25.885Z,71.55
2023-05-10T19:26:56.425Z,71.62
2023-05-10T19:29:25.648Z,71.40
2023-05-10T19:31:54.198Z,71.64
2023-05-10T19:34:22.272Z,71.49
2023-05-10T19:36:50.090Z,71.62
2023-05-10T19:39:17.936Z,71.34
2023-05-10T19:41:45.667Z,71.61
2023-05-10T19:44:15.033Z,71.81
2023-05-10T19:46:42.921Z,71.58
2023-05-10T19:49:10.841Z,71.52
2023-05-10T19:51:38.665Z,71.49
2023-05-10T19:54:06.517Z,71.67
2023-05-10T19:56:34.327Z,71.29
2023-05-10T19:59:03.680Z,71.55
2023-05-10T20:01:32.915Z,71.51
2023-05-10T20:04:01.016Z,71.33
2023-05-10T20:06:28.943Z,71.57
2023-05-10T20:08:56.685Z,71.45
2023-05-10T20:11:24.481Z,71.61
2023-05-10T20:13:52.979Z,71.58
2023-05-10T20:16:20.809Z,71.54
2023-05-10T20:18:50.697Z,71.52
2023-05-10T20:21:19.810Z,71.46
2023-05-10T20:23:47.613Z,71.57
2023-05-10T20:26:15.426Z,71.73
2023-05-10T20:28:43.457Z,71.66
2023-05-10T20:31:11.754Z,71.49
2023-05-10T20:33:39.534Z,71.49
2023-05-10T20:36:10.123Z,71.72
2023-05-10T20:38:38.009Z,71.45
2023-05-10T20:41:05.785Z,71.31
2023-05-10T20:43:34.069Z,71.42
2023-05-10T20:46:05.458Z,71.32
2023-05-10T20:48:34.026Z,71.71
2023-05-10T20:51:02.370Z,71.41
2023-05-10T20:53:31.567Z,71.32
2023-05-10T20:55:59.367Z,71.65
2023-05-10T20:58:27.685Z,71.30
2023-05-10T21:00:55.562Z,71.54
2023-05-10T21:03:23.349Z,71.37
2023-05-10T21:05:51.164Z,71.23
2023-05-10T21:08:19.177Z,71.63
2023-05-10T21:10:48.748Z,71.67
2023-05-10T21:13:16.690Z,71.44
2023-05-10T21:15:44.518Z,71.48
2023-05-10T21:18:12.387Z,71.55
2023-05-10T21:20:40.269Z,71.31
2023-05-10T21:23:08.088Z,71.51
2023-05-10T21:25:36.514Z,71.25
2023-05-10T21:28:05.983Z,71.34
2023-05-10T21:30:33.720Z,71.34
2023-05-10T21:33:02.648Z,71.22
2023-05-10T21:35:31.661Z,71.29
2023-05-10T21:37:59.479Z,71.50
2023-05-10T21:40:27.241Z,71.27
2023-05-10T21:42:55.306Z,71.41
2023-05-10T21:45:24.667Z,71.02
2023-05-10T21:47:52.470Z,71.09
2023-05-10T21:50:20.620Z,71.23
2023-05-10T21:52:48.514Z,71.06
2023-05-10T21:55:17.125Z,71.25
2023-05-10T21:57:45.375Z,71.02
2023-05-10T22:00:16.205Z,71.40
2023-05-10T22:02:46.497Z,71.37
2023-05-10T22:05:14.566Z,71.05
2023-05-10T22:07:42.515Z,71.32
2023-05-10T22:10:10.827Z,71.15
2023-05-10T22:12:38.636Z,71.10
2023-05-10T22:15:10.195Z,71.20
2023-05-10T22:17:39.623Z,71.36
2023-05-10T22:20:10.520Z,71.31
2023-05-10T22:22:38.276Z,70.98
2023-05-10T22:25:07.413Z,71.16
2023-05-10T22:27:35.349Z,71.09
2023-05-10T22:30:03.225Z,71.19
2023-05-10T22:32:32.178Z,71.16
2023-05-10T22:35:02.713Z,71.38
2023-05-10T22:37:31.822Z,71.34
2023-05-10T22:39:59.775Z,71.09
2023-05-10T22:42:27.578Z,71.29
2023-05-10T22:44:55.417Z,71.09
2023-05-10T22:47:23.186Z,71.24
2023-05-10T22:49:51.303Z,71.10
2023-05-10T22:52:19.131Z,71.01
2023-05-10T22:54:48.253Z,71.24
2023-05-10T22:57:16.183Z,71.27
2023-05-10T22:59:44.210Z,71.33
2023-05-10T23:02:14.168Z,71.09
2023-05-10T23:04:42.180Z,71.04
2023-05-10T23:07:10.349Z,71.05
2023-05-10T23:09:38.148Z,71.39
2023-05-10T23:12:07.678Z,71.08
2023-05-10T23:14:35.567Z,71.15
2023-05-10T23:17:03.370Z,71.10
2023-05-10T23:19:31.404Z,71.34
2023-05-10T23:21:59.836Z,71.12
2023-05-10T23:24:27.641Z,71.33
2023-05-10T23:26:55.503Z,71.58
2023-05-10T23:29:26.302Z,71.36
2023-05-10T23:31:54.208Z,71.36
2023-05-10T23:34:22.051Z,71.24
2023-05-10T23:36:49.848Z,71.25
2023-05-10T23:39:17.660Z,71.25
2023-05-10T23:41:45.966Z,71.32
2023-05-10T23:44:13.916Z,71.37
2023-05-10T23:46:43.134Z,71.40
2023-05-10T23:49:11.060Z,71.36
2023-05-10T23:51:38.801Z,71.29
2023-05-10T23:54:06.692Z,71.30
2023-05-10T23:56:34.437Z,71.48
2023-05-10T23:59:02.309Z,71.33
